Time;durP1;ratioP1;P1;durP2;ratioP2;P2;SDS_P1;SDS_P2;PMS_P1;PMS_P2;Temp;Humidity;BMP_temperature;BMP_pressure;BME280_temperature;BME280_humidity;BME280_pressure;Samples;Min_cycle;Max_cycle;Signal;HPM_P1;HPM_P2
2022/08/22 00:00:17;;;;;;;9.52;3.10;;;20.90;63.40;;;;;;9184315;19;20064;-69
2022/08/22 00:03:41;;;;;;;10.77;2.92;;;20.80;63.20;;;;;;9186945;19;20330;-67
2022/08/22 00:06:54;;;;;;;12.07;3.42;;;20.80;63.60;;;;;;9182088;19;20034;-66
2022/08/22 00:10:08;;;;;;;8.77;2.80;;;20.80;63.50;;;;;;9186007;19;20106;-66
2022/08/22 00:13:19;;;;;;;11.43;2.90;;;20.70;63.60;;;;;;9184546;19;20022;-67
2022/08/22 00:16:30;;;;;;;15.88;3.30;;;20.70;63.70;;;;;;9185603;19;20372;-67
2022/08/22 00:19:49;;;;;;;11.35;3.08;;;20.70;63.70;;;;;;9185929;19;20026;-69
2022/08/22 00:23:00;;;;;;;13.93;3.33;;;20.70;64.00;;;;;;9185216;19;20018;-67
2022/08/22 00:26:10;;;;;;;13.93;3.20;;;20.60;63.80;;;;;;9185084;19;20029;-67
2022/08/22 00:29:20;;;;;;;11.45;3.22;;;20.60;64.00;;;;;;9183831;19;20495;-67
2022/08/22 00:32:31;;;;;;;12.40;3.13;;;20.60;64.00;;;;;;9179959;19;20053;-67
2022/08/22 00:35:42;;;;;;;9.57;2.80;;;20.50;64.10;;;;;;9182056;19;20018;-68
2022/08/22 00:38:56;;;;;;;7.82;3.00;;;20.50;64.20;;;;;;9182208;19;20029;-67
2022/08/22 00:42:36;;;;;;;11.65;2.95;;;20.50;64.20;;;;;;9184728;19;20015;-67
2022/08/22 00:46:00;;;;;;;10.93;3.13;;;20.50;64.50;;;;;;9182143;19;20021;-67
2022/08/22 00:49:22;;;;;;;6.80;2.85;;;20.50;64.50;;;;;;9184077;19;20018;-66
2022/08/22 00:53:01;;;;;;;8.88;3.00;;;20.40;64.40;;;;;;9179912;19;20516;-69
2022/08/22 00:56:44;;;;;;;10.65;2.75;;;20.40;64.60;;;;;;9184173;19;20017;-68
2022/08/22 01:00:11;;;;;;;13.00;2.75;;;20.30;64.60;;;;;;9180679;19;20018;-65
2022/08/22 01:03:35;;;;;;;10.05;2.88;;;20.30;64.60;;;;;;9183912;19;20018;-66
2022/08/22 01:06:54;;;;;;;9.35;2.97;;;20.30;64.70;;;;;;9177954;19;20017;-66
2022/08/22 01:10:13;;;;;;;13.30;3.05;;;20.30;64.70;;;;;;9183573;19;20033;-66
2022/08/22 01:13:36;;;;;;;12.05;2.90;;;20.20;64.80;;;;;;9182380;19;20022;-67
2022/08/22 01:17:04;;;;;;;9.82;2.90;;;20.20;65.00;;;;;;9181181;19;20019;-66
2022/08/22 01:20:43;;;;;;;12.02;3.80;;;20.10;65.10;;;;;;9183329;19;20017;-67
2022/08/22 01:24:23;;;;;;;8.68;2.83;;;20.10;65.10;;;;;;9181592;19;20063;-66
2022/08/22 01:27:56;;;;;;;7.63;2.65;;;20.10;65.20;;;;;;9180909;19;20014;-66
2022/08/22 01:31:40;;;;;;;12.80;3.83;;;20.10;65.20;;;;;;9180325;19;20015;-65
2022/08/22 01:35:20;;;;;;;12.85;2.83;;;20.00;65.30;;;;;;9181429;19;20025;-67
2022/08/22 01:38:46;;;;;;;15.45;3.13;;;20.00;65.40;;;;;;9179706;19;20026;-66
2022/08/22 01:42:14;;;;;;;9.45;2.67;;;20.00;65.40;;;;;;9182018;19;20026;-66
2022/08/22 01:45:49;;;;;;;14.32;3.08;;;19.90;65.50;;;;;;9182218;19;20033;-67
2022/08/22 01:48:59;;;;;;;10.45;3.08;;;19.90;65.50;;;;;;9182051;19;20086;-66
2022/08/22 01:52:15;;;;;;;12.63;3.15;;;19.80;65.30;;;;;;9182420;19;20123;-66
2022/08/22 01:55:31;;;;;;;12.30;3.40;;;19.90;65.60;;;;;;9179133;19;20362;-65
2022/08/22 01:58:44;;;;;;;14.70;4.05;;;19.80;65.50;;;;;;9181378;19;20487;-69
2022/08/22 02:02:10;;;;;;;15.13;3.33;;;19.80;66.20;;;;;;9178913;19;20029;-66
2022/08/22 02:05:27;;;;;;;12.27;3.17;;;19.80;65.90;;;;;;9175056;19;20596;-68
2022/08/22 02:08:44;;;;;;;9.52;3.00;;;19.70;65.80;;;;;;9179746;19;20022;-66
2022/08/22 02:11:54;;;;;;;11.93;3.65;;;19.70;65.90;;;;;;9178404;19;20046;-66
2022/08/22 02:15:14;;;;;;;7.63;3.85;;;19.70;65.90;;;;;;9180176;19;20014;-66
2022/08/22 02:18:27;;;;;;;11.98;3.50;;;19.70;66.00;;;;;;9179872;19;20392;-67
2022/08/22 02:21:44;;;;;;;11.77;4.10;;;19.70;66.10;;;;;;9181034;19;20019;-66
2022/08/22 02:25:03;;;;;;;14.55;4.03;;;19.60;66.20;;;;;;9177618;19;20519;-67
2022/08/22 02:28:20;;;;;;;14.97;4.30;;;19.60;66.20;;;;;;9180771;19;20029;-66
2022/08/22 02:31:36;;;;;;;12.38;3.83;;;19.60;66.20;;;;;;9178473;19;20071;-66
2022/08/22 02:34:44;;;;;;;11.25;3.50;;;19.60;66.20;;;;;;9179652;19;20931;-66
2022/08/22 02:37:58;;;;;;;11.95;3.80;;;19.50;66.20;;;;;;9178478;19;20022;-68
2022/08/22 02:41:17;;;;;;;9.93;3.60;;;19.50;66.40;;;;;;9175852;19;20022;-67
2022/08/22 02:44:27;;;;;;;14.90;3.40;;;19.50;66.50;;;;;;9179951;19;20010;-66
2022/08/22 02:47:39;;;;;;;12.45;3.90;;;19.50;66.40;;;;;;9179082;19;20602;-66
2022/08/22 02:50:51;;;;;;;7.38;3.38;;;19.40;66.40;;;;;;9179920;19;20018;-67
2022/08/22 02:54:03;;;;;;;7.25;3.35;;;19.40;66.50;;;;;;9178598;19;20022;-65
2022/08/22 02:57:15;;;;;;;6.47;3.13;;;19.40;66.50;;;;;;9178915;19;20476;-65
2022/08/22 03:00:32;;;;;;;12.88;3.30;;;19.30;66.60;;;;;;9178422;19;20022;-67
2022/08/22 03:03:40;;;;;;;9.63;3.08;;;19.30;66.80;;;;;;9179449;19;20352;-66
2022/08/22 03:06:47;;;;;;;10.00;3.53;;;19.20;66.70;;;;;;9174309;19;20018;-66
2022/08/22 03:10:03;;;;;;;9.50;3.63;;;19.20;66.70;;;;;;9178841;19;20353;-66
2022/08/22 03:13:15;;;;;;;10.52;3.50;;;19.20;66.90;;;;;;9176504;19;20022;-66
2022/08/22 03:16:30;;;;;;;11.80;4.00;;;19.10;66.90;;;;;;9181424;19;20067;-66
2022/08/22 03:19:54;;;;;;;11.75;3.83;;;19.10;66.90;;;;;;9186196;19;20022;-68
2022/08/22 03:23:01;;;;;;;;;;;19.00;67.10;;;;;;9186878;19;20023;-65
2022/08/22 03:26:16;;;;;;;15.85;4.53;;;19.00;66.80;;;;;;9185817;19;20355;-64
2022/08/22 03:29:29;;;;;;;13.15;3.65;;;19.00;66.80;;;;;;9187173;19;20095;-66
2022/08/22 03:32:54;;;;;;;9.45;3.58;;;18.90;66.90;;;;;;9186510;19;20025;-66
2022/08/22 03:36:05;;;;;;;9.90;3.45;;;18.90;67.20;;;;;;9185636;19;20483;-66
2022/08/22 03:39:19;;;;;;;7.57;3.10;;;18.90;67.10;;;;;;9185810;19;20018;-65
2022/08/22 03:42:56;;;;;;;11.60;3.70;;;18.80;67.20;;;;;;9186339;19;20018;-67
2022/08/22 03:46:26;;;;;;;9.52;3.60;;;18.80;67.40;;;;;;9186320;19;20022;-66
2022/08/22 03:50:11;;;;;;;12.93;4.63;;;18.80;67.50;;;;;;9183681;19;20014;-65
2022/08/22 03:53:40;;;;;;;12.13;4.30;;;18.70;67.60;;;;;;9186808;19;20022;-66
2022/08/22 03:57:37;;;;;;;19.65;5.03;;;18.70;67.60;;;;;;9183269;19;20467;-67
2022/08/22 04:01:20;;;;;;;15.13;4.38;;;18.60;67.70;;;;;;9185503;19;20014;-66
2022/08/22 04:04:58;;;;;;;14.38;4.65;;;18.60;67.70;;;;;;9181495;19;20368;-66
2022/08/22 04:08:43;;;;;;;13.32;4.28;;;18.60;67.90;;;;;;9185673;19;20017;-66
2022/08/22 04:12:19;;;;;;;11.60;3.88;;;18.60;68.00;;;;;;9182835;19;20014;-67
2022/08/22 04:15:42;;;;;;;12.73;4.28;;;18.60;68.60;;;;;;9183426;19;20022;-66
2022/08/22 04:19:08;;;;;;;13.27;3.67;;;18.50;68.00;;;;;;9183544;19;20757;-66
2022/08/22 04:22:29;;;;;;;13.38;4.63;;;18.50;68.00;;;;;;9185162;19;20558;-67
2022/08/22 04:25:40;;;;;;;15.43;4.20;;;18.50;68.10;;;;;;9184478;19;20523;-66
2022/08/22 04:28:50;;;;;;;9.68;4.53;;;18.50;68.10;;;;;;9182740;19;20038;-65
2022/08/22 04:32:04;;;;;;;12.70;4.35;;;18.40;68.10;;;;;;9185366;19;20378;-65
2022/08/22 04:35:14;;;;;;;14.88;4.18;;;18.40;68.30;;;;;;9181519;19;20036;-66
2022/08/22 04:38:24;;;;;;;10.98;3.80;;;18.40;68.30;;;;;;9184376;19;20511;-64
2022/08/22 04:41:38;;;;;;;15.90;4.20;;;18.40;68.40;;;;;;9182228;19;20325;-65
2022/08/22 04:44:52;;;;;;;9.98;3.47;;;18.40;68.50;;;;;;9183354;19;20022;-65
2022/08/22 04:48:02;;;;;;;10.68;4.15;;;18.50;68.60;;;;;;9183947;19;20025;-65
2022/08/22 04:51:12;;;;;;;16.85;3.35;;;18.40;68.60;;;;;;9183794;19;20014;-66
2022/08/22 04:54:41;;;;;;;13.20;3.95;;;18.40;68.60;;;;;;9184134;19;20022;-67
2022/08/22 04:58:12;;;;;;;10.93;3.97;;;18.50;69.00;;;;;;9183649;19;20483;-66
2022/08/22 05:01:20;;;;;;;13.45;4.20;;;18.40;69.10;;;;;;9183666;19;20033;-66
2022/08/22 05:04:29;;;;;;;12.07;3.75;;;18.40;68.80;;;;;;9179069;19;20463;-65
2022/08/22 05:07:37;;;;;;;11.32;3.88;;;18.50;68.90;;;;;;9180080;19;20804;-65
2022/08/22 05:10:46;;;;;;;18.77;3.88;;;18.50;69.00;;;;;;9182700;19;20016;-65
2022/08/22 05:13:58;;;;;;;10.90;3.88;;;18.50;69.00;;;;;;9179198;19;20011;-66
2022/08/22 05:17:06;;;;;;;9.75;4.03;;;18.50;69.20;;;;;;9180438;19;20118;-65
2022/08/22 05:20:16;;;;;;;13.38;4.07;;;18.50;69.20;;;;;;9181856;19;20078;-66
2022/08/22 05:23:25;;;;;;;15.25;4.53;;;18.60;69.30;;;;;;9182270;19;20480;-66
2022/08/22 05:26:35;;;;;;;11.13;3.53;;;18.60;69.30;;;;;;9182203;19;20018;-65
2022/08/22 05:29:45;;;;;;;11.38;4.00;;;18.60;69.30;;;;;;9182096;19;20468;-66
2022/08/22 05:32:55;;;;;;;13.20;4.55;;;18.60;69.40;;;;;;9182053;19;20030;-65
2022/08/22 05:36:05;;;;;;;16.80;4.25;;;18.60;69.40;;;;;;9181210;19;20014;-66
2022/08/22 05:39:14;;;;;;;14.43;5.18;;;18.60;69.40;;;;;;9179804;19;20129;-65
2022/08/22 05:42:26;;;;;;;20.40;4.85;;;18.60;69.40;;;;;;9179526;19;20014;-66
2022/08/22 05:45:35;;;;;;;14.80;3.80;;;18.60;69.50;;;;;;9181811;19;20025;-66
2022/08/22 05:48:44;;;;;;;14.05;3.70;;;18.70;69.60;;;;;;9181314;19;20376;-65
2022/08/22 05:51:58;;;;;;;8.15;3.65;;;18.70;69.60;;;;;;9182336;19;20015;-66
2022/08/22 05:55:07;;;;;;;14.57;3.80;;;18.70;69.60;;;;;;9180999;19;20090;-68
2022/08/22 05:58:35;;;;;;;12.68;3.90;;;18.70;69.60;;;;;;9180186;19;20042;-64
2022/08/22 06:01:53;;;;;;;11.27;4.15;;;18.80;69.90;;;;;;9180158;19;20022;-65
2022/08/22 06:05:01;;;;;;;15.60;4.40;;;18.80;69.90;;;;;;9175808;19;20021;-67
2022/08/22 06:08:13;;;;;;;10.73;3.92;;;18.80;69.80;;;;;;9179540;19;20362;-66
2022/08/22 06:11:22;;;;;;;19.20;3.78;;;18.90;69.90;;;;;;9181029;19;20637;-66
2022/08/22 06:14:33;;;;;;;17.80;4.60;;;18.90;69.90;;;;;;9173557;19;20054;-67
2022/08/22 06:17:45;;;;;;;11.98;4.65;;;18.90;70.00;;;;;;9170894;19;20579;-65
2022/08/22 06:20:54;;;;;;;12.10;4.45;;;18.90;70.10;;;;;;9174993;19;20052;-66
2022/08/22 06:24:01;;;;;;;16.00;4.22;;;18.90;70.00;;;;;;9177542;19;20131;-65
2022/08/22 06:27:11;;;;;;;9.52;3.97;;;19.00;70.10;;;;;;9177901;19;20015;-65
2022/08/22 06:30:19;;;;;;;10.57;4.30;;;19.00;70.10;;;;;;9178416;19;20677;-65
2022/08/22 06:33:29;;;;;;;15.88;4.43;;;19.00;70.10;;;;;;9180061;19;20011;-65
2022/08/22 06:36:37;;;;;;;19.25;4.32;;;19.10;70.20;;;;;;9179515;19;20026;-67
2022/08/22 06:39:47;;;;;;;17.80;4.47;;;19.10;70.20;;;;;;9179081;19;20333;-64
2022/08/22 06:42:54;;;;;;;13.30;4.30;;;19.10;70.20;;;;;;9180383;19;20509;-66
2022/08/22 06:45:59;;;;;;;9.18;4.28;;;19.20;70.20;;;;;;9178867;19;20019;-65
2022/08/22 06:49:09;;;;;;;11.93;4.28;;;19.20;70.30;;;;;;9179118;19;20034;-66
2022/08/22 06:52:21;;;;;;;10.38;3.92;;;19.20;70.40;;;;;;9187333;19;20015;-66
2022/08/22 06:55:29;;;;;;;15.50;4.32;;;19.20;70.90;;;;;;9188450;19;20019;-65
2022/08/22 06:58:38;;;;;;;17.70;4.78;;;19.20;70.40;;;;;;9183235;19;20459;-65
2022/08/22 07:01:49;;;;;;;14.52;4.43;;;19.30;70.40;;;;;;9187664;19;20018;-66
2022/08/22 07:04:57;;;;;;;13.75;4.55;;;19.30;70.40;;;;;;9179884;19;20026;-67
2022/08/22 07:08:07;;;;;;;12.13;4.53;;;19.40;70.50;;;;;;9184862;19;20018;-66
2022/08/22 07:11:18;;;;;;;12.13;4.15;;;19.40;70.50;;;;;;9185977;19;20017;-68
2022/08/22 07:14:29;;;;;;;17.70;4.75;;;19.40;70.50;;;;;;9185495;19;20048;-66
2022/08/22 07:17:35;;;;;;;18.20;4.95;;;19.50;70.60;;;;;;9180424;19;20026;-67
2022/08/22 07:20:51;;;;;;;14.25;4.82;;;19.50;70.60;;;;;;9181095;19;20014;-65
2022/08/22 07:24:02;;;;;;;15.25;4.25;;;19.50;70.70;;;;;;9169309;19;20445;-67
2022/08/22 07:27:18;;;;;;;18.55;4.57;;;19.60;70.70;;;;;;9170102;19;20019;-66
2022/08/22 07:30:27;;;;;;;16.23;4.68;;;19.60;70.70;;;;;;9173081;19;20034;-65
2022/08/22 07:33:42;;;;;;;19.73;5.45;;;19.60;70.60;;;;;;9172992;19;20019;-67
2022/08/22 07:36:57;;;;;;;15.63;5.18;;;19.70;70.80;;;;;;9172294;19;20967;-66
2022/08/22 07:40:12;;;;;;;20.45;6.40;;;19.80;70.80;;;;;;9171622;19;20022;-65
2022/08/22 07:43:29;;;;;;;15.60;5.68;;;19.80;70.80;;;;;;9176628;19;20500;-66
2022/08/22 07:46:37;;;;;;;14.52;5.32;;;19.80;70.80;;;;;;9177560;19;20029;-67
2022/08/22 07:49:55;;;;;;;15.32;5.07;;;19.80;70.70;;;;;;9180206;19;20014;-65
2022/08/22 07:53:12;;;;;;;13.10;5.03;;;19.90;71.00;;;;;;9185475;19;20049;-68
2022/08/22 07:56:24;;;;;;;11.05;4.70;;;20.00;70.90;;;;;;9178135;19;20021;-68
2022/08/22 07:59:32;;;;;;;12.95;4.28;;;20.00;70.80;;;;;;9180871;19;20018;-68
2022/08/22 08:02:37;;;;;;;11.48;4.53;;;20.10;70.80;;;;;;9176317;19;20029;-66
2022/08/22 08:05:45;;;;;;;11.68;4.20;;;20.10;70.80;;;;;;9176493;19;20341;-66
2022/08/22 08:08:54;;;;;;;10.80;4.18;;;20.20;70.80;;;;;;9183050;19;20025;-67
2022/08/22 08:12:01;;;;;;;17.90;3.97;;;20.20;70.70;;;;;;9178736;19;20495;-68
2022/08/22 08:15:11;;;;;;;15.77;4.35;;;20.30;70.60;;;;;;9179274;19;20554;-66
2022/08/22 08:18:22;;;;;;;14.55;4.25;;;20.30;70.60;;;;;;9177701;19;20403;-64
2022/08/22 08:21:31;;;;;;;11.93;4.50;;;20.40;70.60;;;;;;9183609;19;20014;-63
2022/08/22 08:24:43;;;;;;;13.43;4.18;;;20.50;70.50;;;;;;9180315;19;20015;-64
2022/08/22 08:31:21;;;;;;;17.77;4.72;;;20.50;70.30;;;;;;9177526;19;20018;-65
2022/08/22 08:34:28;;;;;;;16.38;4.55;;;20.70;70.20;;;;;;9175656;19;20018;-65
2022/08/22 08:37:42;;;;;;;13.52;4.63;;;20.70;70.10;;;;;;9176433;19;20044;-66
2022/08/22 08:41:03;;;;;;;16.05;4.38;;;20.80;70.10;;;;;;9177041;19;20032;-66
2022/08/22 08:44:25;;;;;;;19.80;4.60;;;20.80;70.00;;;;;;9178293;19;20022;-65
2022/08/22 08:47:47;;;;;;;21.63;5.45;;;20.90;70.00;;;;;;9183725;19;20479;-67
2022/08/22 08:51:14;;;;;;;14.95;4.13;;;21.00;69.80;;;;;;9184000;19;20015;-64
2022/08/22 08:54:34;;;;;;;10.88;4.03;;;21.10;69.80;;;;;;9178494;19;20022;-65
2022/08/22 08:57:57;;;;;;;16.17;4.30;;;21.10;69.60;;;;;;9173302;19;20019;-70
2022/08/22 09:01:36;;;;;;;13.05;4.38;;;21.20;69.50;;;;;;9177474;19;20022;-70
2022/08/22 09:05:11;;;;;;;18.58;5.07;;;21.30;69.40;;;;;;9171746;19;20030;-68
2022/08/22 09:08:54;;;;;;;23.02;4.22;;;21.30;69.40;;;;;;9177297;19;20358;-68
2022/08/22 09:12:31;;;;;;;11.05;4.40;;;21.40;69.30;;;;;;9171755;19;20018;-69
2022/08/22 09:15:49;;;;;;;19.23;4.95;;;21.40;69.20;;;;;;9175094;19;20014;-69
2022/08/22 09:19:50;;;;;;;16.73;4.72;;;21.50;69.10;;;;;;9175976;19;20107;-65
2022/08/22 09:23:35;;;;;;;11.93;4.55;;;21.50;69.10;;;;;;9176698;19;20017;-65
2022/08/22 09:26:49;;;;;;;20.05;4.93;;;21.60;69.20;;;;;;9175544;19;20022;-66
2022/08/22 09:29:59;;;;;;;19.00;4.55;;;21.70;69.20;;;;;;9174182;19;20025;-65
2022/08/22 09:33:15;;;;;;;21.30;4.88;;;21.80;69.10;;;;;;9175281;19;20019;-65
2022/08/22 09:36:26;;;;;;;15.57;5.47;;;21.80;69.10;;;;;;9179844;19;20127;-65
2022/08/22 09:39:37;;;;;;;17.98;5.57;;;22.00;69.10;;;;;;9174120;19;20028;-66
2022/08/22 09:42:52;;;;;;;12.85;4.65;;;22.10;69.10;;;;;;9173108;19;20018;-64
2022/08/22 09:46:12;;;;;;;17.13;5.85;;;22.30;69.00;;;;;;9173831;19;20018;-67
2022/08/22 09:49:31;;;;;;;15.27;4.50;;;22.50;69.00;;;;;;9180297;19;20050;-64
2022/08/22 09:52:56;;;;;;;16.98;4.13;;;22.70;68.70;;;;;;9178081;19;20394;-66
2022/08/22 09:56:08;;;;;;;16.60;4.03;;;22.90;68.30;;;;;;9174537;19;20017;-70
2022/08/22 09:59:30;;;;;;;13.07;4.55;;;23.20;68.20;;;;;;9172276;19;20019;-69
2022/08/22 10:02:45;;;;;;;18.73;4.95;;;23.40;68.00;;;;;;9171631;19;20483;-69
2022/08/22 10:06:00;;;;;;;20.50;4.85;;;23.60;67.70;;;;;;9174284;19;20019;-68
2022/08/22 10:09:13;;;;;;;15.55;4.70;;;23.70;67.40;;;;;;9176925;19;20082;-68
2022/08/22 10:12:28;;;;;;;15.07;3.88;;;23.90;67.20;;;;;;9178623;19;20444;-69
2022/08/22 10:15:44;;;;;;;13.55;4.55;;;24.00;67.00;;;;;;9171635;19;20014;-70
2022/08/22 10:19:01;;;;;;;16.05;3.97;;;24.20;66.90;;;;;;9172814;19;20022;-62
2022/08/22 10:22:40;;;;;;;16.52;3.40;;;24.30;66.60;;;;;;9177046;19;20026;-63
2022/08/22 10:25:54;;;;;;;9.50;3.80;;;24.50;66.50;;;;;;9175865;19;20014;-66
2022/08/22 10:29:12;;;;;;;14.45;3.80;;;24.60;66.20;;;;;;9177399;19;21782;-67
2022/08/22 10:32:30;;;;;;;18.13;4.43;;;24.80;66.00;;;;;;9176010;19;20017;-67
2022/08/22 10:35:41;;;;;;;17.67;4.32;;;25.00;65.60;;;;;;9173649;19;20921;-70
2022/08/22 10:38:53;;;;;;;10.77;3.60;;;25.20;65.50;;;;;;9171659;19;20022;-68
2022/08/22 10:42:15;;;;;;;13.55;3.47;;;25.40;65.00;;;;;;9176919;19;20025;-69
2022/08/22 10:45:31;;;;;;;12.55;3.67;;;25.60;64.70;;;;;;9174449;19;20018;-72
2022/08/22 10:48:49;;;;;;;12.35;3.83;;;25.70;64.40;;;;;;9171333;19;20638;-68
2022/08/22 10:52:00;;;;;;;13.07;3.40;;;25.90;64.20;;;;;;9178220;19;20014;-66
2022/08/22 10:55:26;;;;;;;10.07;3.38;;;26.00;64.00;;;;;;9174807;19;20492;-70
2022/08/22 10:58:37;;;;;;;21.53;3.90;;;26.20;63.70;;;;;;9174154;19;20027;-68
2022/08/22 11:01:54;;;;;;;21.75;4.20;;;26.40;63.50;;;;;;9172981;19;20022;-69
2022/08/22 11:05:24;;;;;;;9.75;2.67;;;26.60;63.20;;;;;;9170606;19;20018;-69
2022/08/22 11:08:52;;;;;;;10.07;2.78;;;26.80;62.70;;;;;;9177353;19;20384;-68
2022/08/22 11:12:07;;;;;;;9.85;2.55;;;27.00;62.40;;;;;;9176291;19;20486;-70
2022/08/22 11:15:18;;;;;;;9.68;2.90;;;27.20;62.20;;;;;;9178064;19;20026;-68
2022/08/22 11:19:01;;;;;;;14.05;2.72;;;27.30;61.90;;;;;;9176645;19;20010;-69
2022/08/22 11:22:30;;;;;;;13.77;2.63;;;27.50;61.40;;;;;;9170487;19;20482;-70
2022/08/22 11:25:50;;;;;;;9.02;2.58;;;27.70;61.10;;;;;;9162790;19;20059;-72
2022/08/22 11:29:23;;;;;;;7.65;2.47;;;27.90;60.70;;;;;;9173332;19;20376;-71
2022/08/22 11:32:39;;;;;;;9.20;2.33;;;28.10;60.20;;;;;;9165355;19;20769;-71
2022/08/22 11:35:51;;;;;;;7.50;2.38;;;28.30;60.10;;;;;;9175837;19;20356;-69
2022/08/22 11:39:04;;;;;;;13.98;2.97;;;28.40;60.10;;;;;;9183817;19;20045;-69
2022/08/22 11:42:22;;;;;;;8.43;2.65;;;28.60;59.60;;;;;;9182065;19;20084;-68
2022/08/22 11:45:37;;;;;;;7.53;2.38;;;28.70;59.40;;;;;;9180191;19;20044;-68
2022/08/22 11:48:57;;;;;;;11.70;3.08;;;28.80;59.10;;;;;;9181624;19;20026;-66
2022/08/22 11:52:18;;;;;;;11.70;2.90;;;28.90;58.80;;;;;;9180639;19;20467;-70
2022/08/22 11:55:33;;;;;;;9.98;2.97;;;28.90;58.50;;;;;;9181757;19;20038;-69
2022/08/22 11:58:49;;;;;;;10.35;2.20;;;28.90;58.30;;;;;;9181781;19;20089;-70
2022/08/22 12:02:01;;;;;;;13.95;2.53;;;29.00;58.10;;;;;;9181984;19;20472;-69
2022/08/22 12:05:14;;;;;;;9.57;2.70;;;29.00;57.80;;;;;;9181713;19;20082;-69
2022/08/22 12:09:03;;;;;;;7.35;1.90;;;29.10;57.70;;;;;;9182402;19;20018;-70
2022/08/22 12:12:25;;;;;;;6.97;2.22;;;29.20;57.20;;;;;;9181932;19;20050;-69
2022/08/22 12:15:39;;;;;;;15.27;1.98;;;29.30;57.00;;;;;;9184156;19;20022;-69
2022/08/22 12:18:55;;;;;;;7.20;1.88;;;29.40;57.10;;;;;;9181962;19;20030;-68
2022/08/22 12:22:34;;;;;;;11.48;2.22;;;29.50;56.60;;;;;;9181462;19;20779;-69
2022/08/22 12:26:02;;;;;;;7.53;1.98;;;29.60;56.00;;;;;;9179530;19;20014;-68
2022/08/22 12:29:32;;;;;;;9.27;1.67;;;29.60;55.80;;;;;;9184456;19;20007;-66
2022/08/22 12:33:22;;;;;;;12.85;2.35;;;29.60;55.60;;;;;;9182574;19;20455;-68
2022/08/22 12:36:59;;;;;;;7.53;2.58;;;29.60;55.40;;;;;;9184326;19;20010;-68
2022/08/22 12:40:24;;;;;;;10.27;2.20;;;29.60;55.10;;;;;;9177889;19;20038;-68
2022/08/22 12:43:55;;;;;;;7.82;2.30;;;29.60;54.90;;;;;;9181551;19;20475;-68
2022/08/22 12:47:14;;;;;;;14.07;2.17;;;29.60;54.80;;;;;;9179683;19;20023;-69
2022/08/22 12:50:31;;;;;;;15.15;2.72;;;29.50;54.70;;;;;;9181378;19;20032;-68
2022/08/22 12:53:59;;;;;;;7.55;2.20;;;29.50;54.70;;;;;;9179609;19;20049;-69
2022/08/22 12:57:19;;;;;;;9.00;2.35;;;29.50;54.30;;;;;;9184498;19;20018;-68
2022/08/22 13:00:35;;;;;;;7.72;1.98;;;29.50;54.40;;;;;;9182486;19;20022;-71
2022/08/22 13:03:47;;;;;;;10.30;1.92;;;29.40;54.20;;;;;;9179809;19;20045;-67
2022/08/22 13:07:17;;;;;;;5.82;2.20;;;29.50;54.10;;;;;;9184110;19;20086;-68
2022/08/22 13:10:43;;;;;;;10.35;2.00;;;29.50;53.60;;;;;;9182132;19;20048;-67
2022/08/22 13:13:55;;;;;;;15.65;2.63;;;29.40;54.00;;;;;;9183352;19;20014;-68
2022/08/22 13:17:06;;;;;;;6.80;1.73;;;29.40;53.50;;;;;;9180877;19;20092;-66
2022/08/22 13:20:35;;;;;;;5.22;1.50;;;29.40;53.40;;;;;;9177536;19;20026;-68
2022/08/22 13:23:45;;;;;;;20.50;2.90;;;29.30;53.40;;;;;;9178202;19;20018;-69
2022/08/22 13:27:03;;;;;;;12.50;2.40;;;29.20;53.10;;;;;;9175728;19;20025;-67
2022/08/22 13:30:17;;;;;;;9.65;2.03;;;29.20;53.00;;;;;;9179118;19;20018;-69
2022/08/22 13:33:27;;;;;;;7.85;1.60;;;29.10;53.60;;;;;;9178081;19;20084;-68
2022/08/22 13:36:42;;;;;;;5.72;1.67;;;29.00;53.00;;;;;;9180958;19;20021;-68
2022/08/22 13:40:00;;;;;;;8.85;2.13;;;29.00;52.90;;;;;;9172891;19;20121;-67
2022/08/22 13:43:11;;;;;;;18.13;2.90;;;28.90;53.00;;;;;;9175290;19;20087;-65
2022/08/22 13:46:26;;;;;;;9.55;2.30;;;28.80;52.80;;;;;;9174292;19;20082;-70
2022/08/22 13:49:35;;;;;;;6.03;1.70;;;28.70;52.50;;;;;;9175351;19;20094;-69
2022/08/22 13:52:46;;;;;;;5.72;1.77;;;28.70;52.70;;;;;;9172677;19;20038;-68
2022/08/22 13:56:07;;;;;;;5.95;2.03;;;28.60;52.60;;;;;;9175256;19;20537;-66
2022/08/22 13:59:30;;;;;;;7.88;2.25;;;28.60;52.60;;;;;;9170382;19;20054;-67
2022/08/22 14:03:01;;;;;;;6.03;1.70;;;28.60;52.60;;;;;;9177140;19;20022;-66
2022/08/22 14:06:26;;;;;;;6.88;2.08;;;28.60;52.60;;;;;;9176940;19;20598;-67
2022/08/22 14:09:52;;;;;;;6.57;2.05;;;28.50;52.40;;;;;;9181218;19;20018;-67
2022/08/22 14:13:38;;;;;;;3.97;1.50;;;28.60;52.40;;;;;;9180902;19;20053;-67
2022/08/22 14:16:51;;;;;;;8.18;1.83;;;28.60;52.00;;;;;;9179387;19;20032;-68
2022/08/22 14:19:59;;;;;;;7.57;1.88;;;28.60;52.00;;;;;;9180898;19;20003;-67
2022/08/22 14:23:10;;;;;;;5.05;1.55;;;28.60;52.10;;;;;;9176306;19;20044;-68
2022/08/22 14:26:26;;;;;;;9.40;1.98;;;28.60;52.00;;;;;;9169435;19;20015;-68
2022/08/22 14:29:46;;;;;;;6.68;2.08;;;28.60;51.80;;;;;;9175130;19;20113;-69
2022/08/22 14:33:13;;;;;;;10.67;2.40;;;28.60;51.90;;;;;;9175396;19;20023;-67
2022/08/22 14:36:21;;;;;;;10.30;2.20;;;28.60;52.50;;;;;;9179810;19;20364;-66
2022/08/22 14:39:33;;;;;;;10.50;2.13;;;28.50;52.00;;;;;;9179478;19;20802;-65
2022/08/22 14:42:45;;;;;;;9.18;1.85;;;28.50;51.80;;;;;;9180104;19;20421;-67
2022/08/22 14:45:58;;;;;;;6.68;1.90;;;28.50;51.90;;;;;;9175768;19;20031;-66
2022/08/22 14:49:25;;;;;;;6.22;1.95;;;28.50;51.70;;;;;;9173326;19;20506;-67
2022/08/22 14:52:39;;;;;;;8.43;1.85;;;28.40;51.60;;;;;;9173256;19;20007;-69
2022/08/22 14:55:44;;;;;;;6.78;2.38;;;28.40;51.80;;;;;;9171351;19;20010;-69
2022/08/22 14:58:53;;;;;;;13.10;2.03;;;28.40;51.90;;;;;;9171254;19;20018;-67
2022/08/22 15:02:02;;;;;;;14.07;1.52;;;28.40;51.80;;;;;;9169641;19;20030;-66
2022/08/22 15:05:22;;;;;;;7.57;2.10;;;28.40;51.70;;;;;;9172652;19;20507;-65
2022/08/22 15:08:34;;;;;;;8.63;1.95;;;28.30;51.50;;;;;;9170062;19;20480;-65
2022/08/22 15:11:40;;;;;;;8.52;1.88;;;28.30;51.60;;;;;;9174395;19;20364;-69
2022/08/22 15:14:49;;;;;;;6.68;1.80;;;28.30;51.70;;;;;;9176001;19;20016;-69
2022/08/22 15:17:56;;;;;;;7.70;2.13;;;28.30;51.60;;;;;;9179423;19;20595;-69
2022/08/22 15:21:09;;;;;;;14.90;3.17;;;28.20;51.50;;;;;;9176298;19;20026;-70
2022/08/22 15:24:16;;;;;;;4.95;1.75;;;28.20;51.30;;;;;;9175165;19;20115;-70
2022/08/22 15:27:23;;;;;;;6.07;1.85;;;28.20;51.40;;;;;;9178716;19;20050;-69
2022/08/22 15:30:41;;;;;;;7.35;1.90;;;28.20;51.30;;;;;;9179506;19;20022;-70
2022/08/22 15:33:50;;;;;;;9.65;2.20;;;28.20;51.20;;;;;;9180766;19;20015;-70
2022/08/22 15:37:27;;;;;;;7.25;1.70;;;28.20;51.40;;;;;;9179997;19;20014;-69
2022/08/22 15:40:39;;;;;;;6.38;2.22;;;28.20;51.30;;;;;;9174894;19;20105;-70
2022/08/22 15:43:48;;;;;;;7.45;2.10;;;28.10;51.20;;;;;;9181338;19;20039;-70
2022/08/22 15:47:05;;;;;;;5.82;1.88;;;28.10;51.20;;;;;;9179759;19;20015;-70
2022/08/22 15:50:34;;;;;;;4.13;1.48;;;28.10;51.10;;;;;;9179492;19;20424;-69
2022/08/22 15:54:05;;;;;;;9.77;1.92;;;28.00;51.10;;;;;;9180308;19;20018;-70
2022/08/22 15:57:33;;;;;;;6.72;1.80;;;28.00;51.00;;;;;;9179051;19;20019;-70
2022/08/22 16:00:42;;;;;;;13.27;2.25;;;27.90;51.20;;;;;;9178659;19;20566;-70
2022/08/22 16:03:57;;;;;;;5.85;1.77;;;27.90;51.40;;;;;;9175909;19;20491;-71
2022/08/22 16:07:04;;;;;;;5.18;1.65;;;27.80;51.30;;;;;;9176253;19;20026;-70
2022/08/22 16:10:29;;;;;;;5.50;1.70;;;27.70;51.40;;;;;;9178077;19;20020;-70
2022/08/22 16:13:46;;;;;;;7.30;1.98;;;27.70;51.60;;;;;;9180314;19;20017;-70
2022/08/22 16:16:59;;;;;;;7.85;1.90;;;27.60;51.50;;;;;;9176862;19;20423;-70
2022/08/22 16:20:37;;;;;;;9.20;2.00;;;27.60;51.70;;;;;;9176611;19;20085;-70
2022/08/22 16:24:12;;;;;;;7.53;1.90;;;27.60;51.60;;;;;;9177225;19;20018;-70
2022/08/22 16:27:22;;;;;;;5.25;1.55;;;27.50;51.60;;;;;;9177131;19;20018;-70
2022/08/22 16:30:40;;;;;;;7.40;1.50;;;27.40;51.70;;;;;;9177171;19;20010;-70
2022/08/22 16:33:46;;;;;;;3.80;1.70;;;27.40;51.70;;;;;;9177728;19;20022;-70
2022/08/22 16:36:53;;;;;;;8.63;2.08;;;27.30;51.70;;;;;;9178673;19;20014;-72
2022/08/22 16:40:15;;;;;;;4.00;1.60;;;27.30;51.80;;;;;;9174786;19;20018;-71
2022/08/22 16:43:21;;;;;;;7.47;2.10;;;27.20;51.60;;;;;;9177943;19;20090;-71
2022/08/22 16:46:40;;;;;;;9.32;2.03;;;27.20;51.70;;;;;;9176892;19;20014;-70
2022/08/22 16:50:02;;;;;;;7.95;2.15;;;27.20;51.70;;;;;;9176541;19;20014;-71
2022/08/22 16:53:32;;;;;;;8.05;1.88;;;27.20;51.60;;;;;;9177289;19;20014;-71
2022/08/22 16:56:57;;;;;;;6.75;1.67;;;27.20;51.70;;;;;;9176939;19;20025;-71
2022/08/22 17:00:11;;;;;;;7.13;2.00;;;27.20;51.70;;;;;;9175716;19;20908;-70
2022/08/22 17:03:25;;;;;;;4.82;1.85;;;27.10;51.70;;;;;;9174843;19;20026;-73